sensor_id;sensor_type;location;lat;lon;timestamp;pressure;altitude;pressure_sealevel;temperature;humidity
33191;BME280;19554;42.652;23.364;2023-01-24T00:00:05;95594.91;;;4.96;82.48
33191;BME280;19554;42.652;23.364;2023-01-24T00:02:31;95601.00;;;4.96;81.97
33191;BME280;19554;42.652;23.364;2023-01-24T00:04:57;95603.28;;;5.05;81.69
33191;BME280;19554;42.652;23.364;2023-01-24T00:07:22;95589.50;;;5.03;81.95
33191;BME280;19554;42.652;23.364;2023-01-24T00:09:47;95511.63;;;4.33;82.02
33191;BME280;19554;42.652;23.364;2023-01-24T00:12:13;95604.44;;;4.97;82.05
33191;BME280;19554;42.652;23.364;2023-01-24T00:14:38;95597.44;;;5.03;81.78
33191;BME280;19554;42.652;23.364;2023-01-24T00:17:04;95598.22;;;4.91;82.15
33191;BME280;19554;42.652;23.364;2023-01-24T00:19:29;95602.03;;;5.07;81.75
33191;BME280;19554;42.652;23.364;2023-01-24T00:21:54;95612.28;;;5.04;81.03
33191;BME280;19554;42.652;23.364;2023-01-24T00:24:20;95555.03;;;4.67;80.92
33191;BME280;19554;42.652;23.364;2023-01-24T00:26:46;95615.03;;;5.09;80.56
33191;BME280;19554;42.652;23.364;2023-01-24T00:29:11;95581.78;;;5.01;80.48
33191;BME280;19554;42.652;23.364;2023-01-24T00:31:36;95608.38;;;5.18;80.27
33191;BME280;19554;42.652;23.364;2023-01-24T00:34:02;95610.44;;;5.16;80.11
33191;BME280;19554;42.652;23.364;2023-01-24T00:36:27;95605.16;;;5.16;79.99
33191;BME280;19554;42.652;23.364;2023-01-24T00:38:53;95536.41;;;4.62;79.64
33191;BME280;19554;42.652;23.364;2023-01-24T00:41:19;95612.28;;;5.04;80.65
33191;BME280;19554;42.652;23.364;2023-01-24T00:43:45;95609.72;;;4.97;80.67
33191;BME280;19554;42.652;23.364;2023-01-24T00:46:11;95593.50;;;4.93;80.56
33191;BME280;19554;42.652;23.364;2023-01-24T00:48:37;95592.25;;;5.08;79.98
33191;BME280;19554;42.652;23.364;2023-01-24T00:51:02;95607.78;;;5.16;79.58
33191;BME280;19554;42.652;23.364;2023-01-24T00:53:28;95607.78;;;5.16;79.64
33191;BME280;19554;42.652;23.364;2023-01-24T00:55:53;95582.03;;;4.99;79.10
33191;BME280;19554;42.652;23.364;2023-01-24T00:58:20;95499.16;;;4.64;78.68
33191;BME280;19554;42.652;23.364;2023-01-24T01:00:47;95613.00;;;5.34;78.75
33191;BME280;19554;42.652;23.364;2023-01-24T01:03:14;95612.53;;;5.14;78.13
33191;BME280;19554;42.652;23.364;2023-01-24T01:05:40;95617.56;;;5.04;78.86
33191;BME280;19554;42.652;23.364;2023-01-24T01:08:06;95620.28;;;4.85;79.17
33191;BME280;19554;42.652;23.364;2023-01-24T01:10:31;95608.09;;;4.84;79.30
33191;BME280;19554;42.652;23.364;2023-01-24T01:12:57;95614.28;;;4.78;79.53
33191;BME280;19554;42.652;23.364;2023-01-24T01:15:23;95624.59;;;4.68;79.59
33191;BME280;19554;42.652;23.364;2023-01-24T01:17:48;95619.56;;;4.78;79.67
33191;BME280;19554;42.652;23.364;2023-01-24T01:20:14;95616.72;;;4.91;79.05
33191;BME280;19554;42.652;23.364;2023-01-24T01:22:39;95621.34;;;4.96;78.72
33191;BME280;19554;42.652;23.364;2023-01-24T01:25:05;95613.28;;;4.91;78.56
33191;BME280;19554;42.652;23.364;2023-01-24T01:27:30;95621.47;;;4.89;78.70
33191;BME280;19554;42.652;23.364;2023-01-24T01:29:55;95603.94;;;4.88;78.63
33191;BME280;19554;42.652;23.364;2023-01-24T01:32:21;95620.00;;;4.75;79.17
33191;BME280;19554;42.652;23.364;2023-01-24T01:34:46;95616.81;;;4.73;79.42
33191;BME280;19554;42.652;23.364;2023-01-24T01:37:12;95615.19;;;4.72;79.26
33191;BME280;19554;42.652;23.364;2023-01-24T01:39:37;95610.63;;;4.79;78.94
33191;BME280;19554;42.652;23.364;2023-01-24T01:42:02;95596.59;;;4.79;78.54
33191;BME280;19554;42.652;23.364;2023-01-24T01:44:30;95615.91;;;4.79;78.80
33191;BME280;19554;42.652;23.364;2023-01-24T01:47:42;95612.56;;;4.84;78.72
33191;BME280;19554;42.652;23.364;2023-01-24T01:52:42;95602.16;;;4.59;79.29
33191;BME280;19554;42.652;23.364;2023-01-24T01:55:13;95601.25;;;4.65;79.47
33191;BME280;19554;42.652;23.364;2023-01-24T01:57:40;95614.09;;;4.61;79.59
33191;BME280;19554;42.652;23.364;2023-01-24T02:00:12;95516.56;;;3.99;79.56
33191;BME280;19554;42.652;23.364;2023-01-24T02:02:42;95617.88;;;4.54;80.23
33191;BME280;19554;42.652;23.364;2023-01-24T02:05:10;95611.69;;;4.60;79.88
33191;BME280;19554;42.652;23.364;2023-01-24T02:07:44;95615.56;;;4.45;80.16
33191;BME280;19554;42.652;23.364;2023-01-24T02:10:11;95594.88;;;4.42;80.14
33191;BME280;19554;42.652;23.364;2023-01-24T02:12:39;95592.78;;;4.44;79.83
33191;BME280;19554;42.652;23.364;2023-01-24T02:15:11;95605.97;;;4.63;79.79
33191;BME280;19554;42.652;23.364;2023-01-24T02:17:55;95582.34;;;4.49;79.75
33191;BME280;19554;42.652;23.364;2023-01-24T02:25:37;95603.44;;;4.68;80.35
33191;BME280;19554;42.652;23.364;2023-01-24T02:28:06;95595.06;;;4.71;80.30
33191;BME280;19554;42.652;23.364;2023-01-24T02:30:31;95603.59;;;4.73;80.25
33191;BME280;19554;42.652;23.364;2023-01-24T02:32:57;95593.31;;;4.65;80.46
33191;BME280;19554;42.652;23.364;2023-01-24T02:35:27;95560.16;;;4.50;80.27
33191;BME280;19554;42.652;23.364;2023-01-24T02:37:53;95601.25;;;4.65;80.29
33191;BME280;19554;42.652;23.364;2023-01-24T02:40:19;95605.63;;;4.71;80.34
33191;BME280;19554;42.652;23.364;2023-01-24T02:42:45;95606.22;;;4.73;80.15
33191;BME280;19554;42.652;23.364;2023-01-24T02:45:18;95612.59;;;4.54;80.58
33191;BME280;19554;42.652;23.364;2023-01-24T02:47:50;95598.06;;;4.44;80.81
33191;BME280;19554;42.652;23.364;2023-01-24T02:50:17;95603.75;;;4.48;80.98
33191;BME280;19554;42.652;23.364;2023-01-24T02:52:44;95602.44;;;4.39;81.07
33191;BME280;19554;42.652;23.364;2023-01-24T02:55:29;95616.31;;;4.34;81.14
33191;BME280;19554;42.652;23.364;2023-01-24T02:57:55;95598.34;;;4.24;81.32
33191;BME280;19554;42.652;23.364;2023-01-24T03:00:41;95596.38;;;4.20;81.71
33191;BME280;19554;42.652;23.364;2023-01-24T03:03:07;95593.00;;;4.31;81.33
33191;BME280;19554;42.652;23.364;2023-01-24T03:05:33;95566.00;;;4.11;81.24
33191;BME280;19554;42.652;23.364;2023-01-24T03:08:08;95489.41;;;3.62;81.16
33191;BME280;19554;42.652;23.364;2023-01-24T03:10:34;95595.06;;;3.92;82.25
33191;BME280;19554;42.652;23.364;2023-01-24T03:13:00;95605.03;;;4.09;82.67
33191;BME280;19554;42.652;23.364;2023-01-24T03:15:44;95585.78;;;3.90;82.60
33191;BME280;19554;42.652;23.364;2023-01-24T03:18:28;95598.06;;;4.14;82.45
33191;BME280;19554;42.652;23.364;2023-01-24T03:21:12;95596.81;;;4.17;81.98
33191;BME280;19554;42.652;23.364;2023-01-24T03:23:55;95588.59;;;4.25;81.77
33191;BME280;19554;42.652;23.364;2023-01-24T03:26:39;95594.75;;;4.19;81.24
33191;BME280;19554;42.652;23.364;2023-01-24T03:29:23;95588.03;;;4.04;82.07
33191;BME280;19554;42.652;23.364;2023-01-24T03:32:07;95595.66;;;4.13;81.98
33191;BME280;19554;42.652;23.364;2023-01-24T03:34:51;95595.34;;;4.21;81.94
33191;BME280;19554;42.652;23.364;2023-01-24T03:37:18;95597.75;;;4.22;81.87
33191;BME280;19554;42.652;23.364;2023-01-24T03:40:06;95597.84;;;4.16;81.54
33191;BME280;19554;42.652;23.364;2023-01-24T03:42:33;95598.66;;;4.16;81.86
33191;BME280;19554;42.652;23.364;2023-01-24T03:44:59;95497.28;;;3.50;81.97
33191;BME280;19554;42.652;23.364;2023-01-24T03:47:25;95537.38;;;3.77;82.11
33191;BME280;19554;42.652;23.364;2023-01-24T03:49:50;95592.47;;;4.22;81.81
33191;BME280;19554;42.652;23.364;2023-01-24T03:52:34;95571.75;;;4.08;81.48
33191;BME280;19554;42.652;23.364;2023-01-24T03:55:00;95529.00;;;3.80;81.64
33191;BME280;19554;42.652;23.364;2023-01-24T03:57:27;95591.78;;;4.27;81.70
33191;BME280;19554;42.652;23.364;2023-01-24T03:59:53;95588.03;;;4.04;81.79
33191;BME280;19554;42.652;23.364;2023-01-24T04:02:19;95585.97;;;4.07;82.00
33191;BME280;19554;42.652;23.364;2023-01-24T04:04:45;95564.09;;;3.99;81.66
33191;BME280;19554;42.652;23.364;2023-01-24T04:07:30;95563.53;;;3.97;81.82
33191;BME280;19554;42.652;23.364;2023-01-24T04:09:55;95584.50;;;4.11;81.64
33191;BME280;19554;42.652;23.364;2023-01-24T04:12:22;95571.09;;;3.94;82.14
33191;BME280;19554;42.652;23.364;2023-01-24T04:14:48;95446.16;;;3.15;81.95
33191;BME280;19554;42.652;23.364;2023-01-24T04:17:13;95581.94;;;4.04;81.79
33191;BME280;19554;42.652;23.364;2023-01-24T04:19:38;95553.06;;;3.72;81.82
33191;BME280;19554;42.652;23.364;2023-01-24T04:22:04;95581.13;;;3.85;82.43
33191;BME280;19554;42.652;23.364;2023-01-24T04:24:29;95583.34;;;3.88;82.31
33191;BME280;19554;42.652;23.364;2023-01-24T04:26:55;95580.56;;;3.83;82.25
33191;BME280;19554;42.652;23.364;2023-01-24T04:29:20;95566.63;;;3.76;82.39
33191;BME280;19554;42.652;23.364;2023-01-24T04:31:45;95540.66;;;3.54;82.46
33191;BME280;19554;42.652;23.364;2023-01-24T04:34:11;95570.59;;;3.67;82.86
33191;BME280;19554;42.652;23.364;2023-01-24T04:36:36;95598.91;;;3.78;82.89
33191;BME280;19554;42.652;23.364;2023-01-24T04:39:02;95584.66;;;3.79;82.61
33191;BME280;19554;42.652;23.364;2023-01-24T04:41:27;95566.44;;;3.59;82.52
33191;BME280;19554;42.652;23.364;2023-01-24T04:43:53;95577.56;;;3.79;82.53
33191;BME280;19554;42.652;23.364;2023-01-24T04:46:18;95587.47;;;3.84;82.41
33191;BME280;19554;42.652;23.364;2023-01-24T04:48:43;95589.94;;;3.79;82.38
33191;BME280;19554;42.652;23.364;2023-01-24T04:51:09;95593.47;;;3.91;82.20
33191;BME280;19554;42.652;23.364;2023-01-24T04:53:38;95580.72;;;3.70;82.23
33191;BME280;19554;42.652;23.364;2023-01-24T04:56:03;95583.13;;;3.71;82.38
33191;BME280;19554;42.652;23.364;2023-01-24T04:58:29;95594.19;;;3.62;82.88
33191;BME280;19554;42.652;23.364;2023-01-24T05:00:54;95568.41;;;3.45;82.88
33191;BME280;19554;42.652;23.364;2023-01-24T05:03:20;95594.94;;;3.69;82.50
33191;BME280;19554;42.652;23.364;2023-01-24T05:05:49;95593.50;;;3.73;82.02
33191;BME280;19554;42.652;23.364;2023-01-24T05:08:15;95587.09;;;3.80;81.55
33191;BME280;19554;42.652;23.364;2023-01-24T05:10:41;95604.81;;;3.55;82.17
33191;BME280;19554;42.652;23.364;2023-01-24T05:13:07;95597.44;;;3.64;82.38
33191;BME280;19554;42.652;23.364;2023-01-24T05:15:32;95600.50;;;3.61;82.35
33191;BME280;19554;42.652;23.364;2023-01-24T05:17:58;95610.75;;;3.69;82.30
33191;BME280;19554;42.652;23.364;2023-01-24T05:20:23;95610.63;;;3.82;82.15
33191;BME280;19554;42.652;23.364;2023-01-24T05:22:49;95619.72;;;3.68;82.42
33191;BME280;19554;42.652;23.364;2023-01-24T05:25:15;95616.41;;;3.72;82.26
33191;BME280;19554;42.652;23.364;2023-01-24T05:27:41;95626.16;;;3.72;82.40
33191;BME280;19554;42.652;23.364;2023-01-24T05:30:07;95551.19;;;3.18;82.43
33191;BME280;19554;42.652;23.364;2023-01-24T05:32:32;95638.50;;;3.60;82.60
33191;BME280;19554;42.652;23.364;2023-01-24T05:34:58;95638.00;;;3.69;82.29
33191;BME280;19554;42.652;23.364;2023-01-24T05:37:23;95637.69;;;3.59;82.47
33191;BME280;19554;42.652;23.364;2023-01-24T05:39:48;95623.53;;;3.53;82.95
33191;BME280;19554;42.652;23.364;2023-01-24T05:42:14;95635.19;;;3.64;82.90
33191;BME280;19554;42.652;23.364;2023-01-24T05:44:39;95645.69;;;3.71;82.52
33191;BME280;19554;42.652;23.364;2023-01-24T05:47:05;95642.19;;;3.77;82.46
33191;BME280;19554;42.652;23.364;2023-01-24T05:49:30;95645.19;;;3.80;82.46
33191;BME280;19554;42.652;23.364;2023-01-24T05:51:56;95640.41;;;3.71;82.32
33191;BME280;19554;42.652;23.364;2023-01-24T05:54:21;95648.78;;;3.86;81.76
33191;BME280;19554;42.652;23.364;2023-01-24T05:56:46;95551.66;;;3.15;81.45
33191;BME280;19554;42.652;23.364;2023-01-24T05:59:12;95644.09;;;3.70;82.01
33191;BME280;19554;42.652;23.364;2023-01-24T06:01:39;95613.63;;;3.24;82.62
33191;BME280;19554;42.652;23.364;2023-01-24T06:04:04;95662.69;;;3.56;82.78
33191;BME280;19554;42.652;23.364;2023-01-24T06:06:30;95666.63;;;3.47;83.23
33191;BME280;19554;42.652;23.364;2023-01-24T06:08:55;95672.22;;;3.58;83.18
33191;BME280;19554;42.652;23.364;2023-01-24T06:11:23;95666.88;;;3.64;82.83
33191;BME280;19554;42.652;23.364;2023-01-24T06:13:49;95626.03;;;3.23;82.43
33191;BME280;19554;42.652;23.364;2023-01-24T06:16:20;95665.13;;;3.33;83.15
33191;BME280;19554;42.652;23.364;2023-01-24T06:18:45;95671.16;;;3.40;83.51
33191;BME280;19554;42.652;23.364;2023-01-24T06:23:50;95690.38;;;3.47;82.98
33191;BME280;19554;42.652;23.364;2023-01-24T06:26:15;95555.50;;;2.37;83.97
33191;BME280;19554;42.652;23.364;2023-01-24T06:28:41;95673.84;;;3.08;83.97
33191;BME280;19554;42.652;23.364;2023-01-24T06:31:21;95689.66;;;3.08;84.35
33191;BME280;19554;42.652;23.364;2023-01-24T06:39:21;95696.94;;;3.13;84.87
33191;BME280;19554;42.652;23.364;2023-01-24T06:41:48;95700.59;;;3.12;84.97
33191;BME280;19554;42.652;23.364;2023-01-24T06:44:13;95705.81;;;3.19;84.69
33191;BME280;19554;42.652;23.364;2023-01-24T06:46:39;95616.94;;;2.63;83.95
33191;BME280;19554;42.652;23.364;2023-01-24T06:49:05;95700.25;;;3.02;83.80
33191;BME280;19554;42.652;23.364;2023-01-24T06:51:30;95703.97;;;2.94;84.08
33191;BME280;19554;42.652;23.364;2023-01-24T06:53:56;95716.41;;;3.12;83.47
33191;BME280;19554;42.652;23.364;2023-01-24T06:56:21;95713.69;;;3.25;83.25
33191;BME280;19554;42.652;23.364;2023-01-24T06:58:47;95701.72;;;3.23;81.39
33191;BME280;19554;42.652;23.364;2023-01-24T07:01:12;95719.50;;;3.34;81.30
33191;BME280;19554;42.652;23.364;2023-01-24T07:03:38;95716.28;;;3.32;80.83
33191;BME280;19554;42.652;23.364;2023-01-24T07:06:03;95700.63;;;3.05;81.09
33191;BME280;19554;42.652;23.364;2023-01-24T07:08:29;95713.38;;;3.40;81.27
33191;BME280;19554;42.652;23.364;2023-01-24T07:10:57;95706.16;;;3.29;80.65
33191;BME280;19554;42.652;23.364;2023-01-24T07:13:23;95729.22;;;3.40;80.87
33191;BME280;19554;42.652;23.364;2023-01-24T07:15:48;95727.25;;;3.29;80.98
33191;BME280;19554;42.652;23.364;2023-01-24T07:18:17;95725.81;;;3.01;82.06
33191;BME280;19554;42.652;23.364;2023-01-24T07:20:43;95732.63;;;3.16;82.69
33191;BME280;19554;42.652;23.364;2023-01-24T07:23:21;95652.22;;;2.61;82.57
33191;BME280;19554;42.652;23.364;2023-01-24T07:25:48;95737.34;;;3.07;82.75
33191;BME280;19554;42.652;23.364;2023-01-24T07:28:14;95730.56;;;2.86;83.48
33191;BME280;19554;42.652;23.364;2023-01-24T07:30:40;95737.91;;;2.84;82.98
33191;BME280;19554;42.652;23.364;2023-01-24T07:33:05;95736.59;;;2.93;82.96
33191;BME280;19554;42.652;23.364;2023-01-24T07:35:30;95742.88;;;2.99;82.79
33191;BME280;19554;42.652;23.364;2023-01-24T07:37:56;95759.84;;;3.09;82.66
33191;BME280;19554;42.652;23.364;2023-01-24T07:40:21;95741.78;;;3.13;82.35
33191;BME280;19554;42.652;23.364;2023-01-24T07:42:46;95726.31;;;2.85;82.66
33191;BME280;19554;42.652;23.364;2023-01-24T07:45:12;95745.84;;;2.77;83.10
33191;BME280;19554;42.652;23.364;2023-01-24T07:47:38;95690.81;;;2.43;83.45
33191;BME280;19554;42.652;23.364;2023-01-24T07:50:03;95746.38;;;2.86;83.40
33191;BME280;19554;42.652;23.364;2023-01-24T07:52:29;95742.50;;;2.95;83.16
33191;BME280;19554;42.652;23.364;2023-01-24T07:54:54;95759.81;;;2.78;83.73
33191;BME280;19554;42.652;23.364;2023-01-24T07:57:20;95726.53;;;2.77;83.49
33191;BME280;19554;42.652;23.364;2023-01-24T07:59:45;95701.66;;;2.66;83.58
33191;BME280;19554;42.652;23.364;2023-01-24T08:02:11;95766.16;;;3.08;83.38
33191;BME280;19554;42.652;23.364;2023-01-24T08:04:37;95782.81;;;3.02;83.06
33191;BME280;19554;42.652;23.364;2023-01-24T08:07:03;95771.00;;;3.12;82.59
33191;BME280;19554;42.652;23.364;2023-01-24T08:09:48;95755.34;;;3.17;82.65
33191;BME280;19554;42.652;23.364;2023-01-24T08:12:15;95763.94;;;3.05;81.49
33191;BME280;19554;42.652;23.364;2023-01-24T08:14:40;95668.72;;;2.50;81.58
33191;BME280;19554;42.652;23.364;2023-01-24T08:17:06;95759.81;;;3.16;81.65
33191;BME280;19554;42.652;23.364;2023-01-24T08:19:31;95755.47;;;2.90;81.52
33191;BME280;19554;42.652;23.364;2023-01-24T08:21:57;95768.16;;;2.75;82.58
33191;BME280;19554;42.652;23.364;2023-01-24T08:24:22;95770.94;;;2.80;82.91
33191;BME280;19554;42.652;23.364;2023-01-24T08:26:48;95778.63;;;2.88;83.36
33191;BME280;19554;42.652;23.364;2023-01-24T08:29:14;95747.94;;;2.55;84.03
33191;BME280;19554;42.652;23.364;2023-01-24T08:31:40;95690.34;;;2.07;84.51
33191;BME280;19554;42.652;23.364;2023-01-24T08:34:06;95729.00;;;2.27;84.97
33191;BME280;19554;42.652;23.364;2023-01-24T08:36:31;95777.13;;;2.60;85.36
33191;BME280;19554;42.652;23.364;2023-01-24T08:38:57;95780.84;;;2.46;85.74
33191;BME280;19554;42.652;23.364;2023-01-24T08:41:22;95781.78;;;2.58;85.91
33191;BME280;19554;42.652;23.364;2023-01-24T08:43:47;95777.91;;;2.68;85.75
33191;BME280;19554;42.652;23.364;2023-01-24T08:46:13;95781.59;;;2.60;85.70
33191;BME280;19554;42.652;23.364;2023-01-24T08:48:38;95766.97;;;2.64;85.57
33191;BME280;19554;42.652;23.364;2023-01-24T08:51:04;95781.91;;;2.77;85.99
33191;BME280;19554;42.652;23.364;2023-01-24T08:53:32;95679.25;;;2.05;85.48
33191;BME280;19554;42.652;23.364;2023-01-24T08:55:57;95723.06;;;2.38;85.44
33191;BME280;19554;42.652;23.364;2023-01-24T08:58:22;95776.84;;;2.82;85.60
33191;BME280;19554;42.652;23.364;2023-01-24T09:00:48;95777.00;;;2.87;85.23
33191;BME280;19554;42.652;23.364;2023-01-24T09:03:16;95772.56;;;2.88;84.84
33191;BME280;19554;42.652;23.364;2023-01-24T09:05:41;95783.50;;;2.91;84.26
33191;BME280;19554;42.652;23.364;2023-01-24T09:08:07;95772.16;;;2.84;84.83
33191;BME280;19554;42.652;23.364;2023-01-24T09:10:33;95771.72;;;2.87;84.77
33191;BME280;19554;42.652;23.364;2023-01-24T09:13:00;95769.63;;;3.02;85.20
33191;BME280;19554;42.652;23.364;2023-01-24T09:15:25;95766.56;;;3.05;85.61
33191;BME280;19554;42.652;23.364;2023-01-24T09:17:50;95750.47;;;3.14;85.49
33191;BME280;19554;42.652;23.364;2023-01-24T09:20:16;95788.06;;;3.09;84.08
33191;BME280;19554;42.652;23.364;2023-01-24T09:22:41;95762.19;;;2.41;84.19
33191;BME280;19554;42.652;23.364;2023-01-24T09:25:08;95771.88;;;2.54;85.50
33191;BME280;19554;42.652;23.364;2023-01-24T09:27:34;95765.06;;;2.26;87.03
33191;BME280;19554;42.652;23.364;2023-01-24T09:30:00;95772.31;;;2.44;87.23
33191;BME280;19554;42.652;23.364;2023-01-24T09:32:25;95772.69;;;2.54;86.96
33191;BME280;19554;42.652;23.364;2023-01-24T09:34:51;95766.63;;;2.47;86.89
33191;BME280;19554;42.652;23.364;2023-01-24T09:37:20;95765.84;;;2.40;87.38
33191;BME280;19554;42.652;23.364;2023-01-24T09:39:46;95723.81;;;2.00;87.58
33191;BME280;19554;42.652;23.364;2023-01-24T09:45:38;95767.06;;;2.31;89.04
33191;BME280;19554;42.652;23.364;2023-01-24T09:50:15;95757.31;;;2.38;90.26
33191;BME280;19554;42.652;23.364;2023-01-24T09:52:43;95619.66;;;1.33;89.07
33191;BME280;19554;42.652;23.364;2023-01-24T09:55:18;95709.00;;;2.06;88.95
33191;BME280;19554;42.652;23.364;2023-01-24T10:00:38;95753.81;;;2.57;89.95
33191;BME280;19554;42.652;23.364;2023-01-24T10:03:14;95676.47;;;2.38;89.54
33191;BME280;19554;42.652;23.364;2023-01-24T10:05:47;95695.22;;;2.55;87.46
33191;BME280;19554;42.652;23.364;2023-01-24T10:10:52;95740.34;;;2.79;86.82
33191;BME280;19554;42.652;23.364;2023-01-24T10:22:50;95740.66;;;2.51;86.93
33191;BME280;19554;42.652;23.364;2023-01-24T10:25:03;95750.59;;;2.49;87.14
33191;BME280;19554;42.652;23.364;2023-01-24T10:27:36;95633.91;;;1.90;87.58
33191;BME280;19554;42.652;23.364;2023-01-24T10:30:27;95687.69;;;2.21;87.65
33191;BME280;19554;42.652;23.364;2023-01-24T10:33:03;95733.03;;;2.36;87.49
33191;BME280;19554;42.652;23.364;2023-01-24T10:35:36;95746.41;;;2.34;88.09
33191;BME280;19554;42.652;23.364;2023-01-24T10:38:05;95725.72;;;2.31;88.17
33191;BME280;19554;42.652;23.364;2023-01-24T10:40:32;95716.38;;;2.42;88.56
33191;BME280;19554;42.652;23.364;2023-01-24T10:43:04;95732.16;;;2.49;87.90
33191;BME280;19554;42.652;23.364;2023-01-24T10:45:51;95731.16;;;2.50;87.76
33191;BME280;19554;42.652;23.364;2023-01-24T10:48:39;95731.75;;;2.52;87.25
33191;BME280;19554;42.652;23.364;2023-01-24T10:51:11;95732.50;;;2.66;87.07
33191;BME280;19554;42.652;23.364;2023-01-24T10:53:37;95682.41;;;2.21;86.69
33191;BME280;19554;42.652;23.364;2023-01-24T10:56:03;95734.09;;;2.67;86.23
33191;BME280;19554;42.652;23.364;2023-01-24T11:01:21;95736.66;;;2.35;86.72
33191;BME280;19554;42.652;23.364;2023-01-24T11:03:49;95733.78;;;2.50;87.05
33191;BME280;19554;42.652;23.364;2023-01-24T11:08:55;95733.81;;;2.43;86.78
33191;BME280;19554;42.652;23.364;2023-01-24T11:11:29;95723.69;;;2.40;86.78
33191;BME280;19554;42.652;23.364;2023-01-24T11:13:57;95611.81;;;1.91;86.99
33191;BME280;19554;42.652;23.364;2023-01-24T11:16:30;95728.44;;;2.63;87.36
33191;BME280;19554;42.652;23.364;2023-01-24T11:19:03;95714.81;;;2.73;86.39
33191;BME280;19554;42.652;23.364;2023-01-24T11:21:29;95695.72;;;2.39;86.47
33191;BME280;19554;42.652;23.364;2023-01-24T11:24:07;95730.94;;;2.51;86.36
33191;BME280;19554;42.652;23.364;2023-01-24T11:27:34;95703.84;;;2.31;86.39
33191;BME280;19554;42.652;23.364;2023-01-24T11:29:35;95713.97;;;2.41;86.93
33191;BME280;19554;42.652;23.364;2023-01-24T11:40:56;95706.19;;;2.52;85.90
33191;BME280;19554;42.652;23.364;2023-01-24T11:50:10;95696.47;;;2.53;85.94
33191;BME280;19554;42.652;23.364;2023-01-24T11:57:59;95663.84;;;2.85;84.93
33191;BME280;19554;42.652;23.364;2023-01-24T12:00:42;95695.38;;;3.05;83.74
33191;BME280;19554;42.652;23.364;2023-01-24T12:03:39;95689.81;;;3.14;83.37
33191;BME280;19554;42.652;23.364;2023-01-24T12:12:30;95686.72;;;3.23;84.67
33191;BME280;19554;42.652;23.364;2023-01-24T12:18:08;95698.81;;;3.31;83.62
33191;BME280;19554;42.652;23.364;2023-01-24T12:21:06;95689.03;;;3.38;83.57
33191;BME280;19554;42.652;23.364;2023-01-24T12:23:54;95698.28;;;3.47;83.70
33191;BME280;19554;42.652;23.364;2023-01-24T12:26:28;95699.09;;;3.48;82.98
33191;BME280;19554;42.652;23.364;2023-01-24T12:32:00;95691.44;;;2.83;84.62
33191;BME280;19554;42.652;23.364;2023-01-24T12:35:01;95684.22;;;2.72;85.45
33191;BME280;19554;42.652;23.364;2023-01-24T12:37:35;95692.78;;;2.60;85.61
33191;BME280;19554;42.652;23.364;2023-01-24T12:40:15;95706.16;;;2.59;86.05
33191;BME280;19554;42.652;23.364;2023-01-24T12:45:40;95700.91;;;2.52;85.16
33191;BME280;19554;42.652;23.364;2023-01-24T12:49:06;95703.34;;;2.60;85.37
33191;BME280;19554;42.652;23.364;2023-01-24T12:54:11;95697.78;;;2.75;84.60
33191;BME280;19554;42.652;23.364;2023-01-24T12:56:55;95695.00;;;2.64;84.51
33191;BME280;19554;42.652;23.364;2023-01-24T12:59:26;95699.72;;;2.48;84.94
33191;BME280;19554;42.652;23.364;2023-01-24T13:07:36;95705.34;;;2.58;84.09
33191;BME280;19554;42.652;23.364;2023-01-24T13:13:17;95681.25;;;2.55;83.07
33191;BME280;19554;42.652;23.364;2023-01-24T13:22:40;95710.31;;;2.80;82.13
33191;BME280;19554;42.652;23.364;2023-01-24T13:27:43;95634.88;;;2.47;81.79
33191;BME280;19554;42.652;23.364;2023-01-24T13:32:39;95709.28;;;2.88;82.35
33191;BME280;19554;42.652;23.364;2023-01-24T13:35:22;95613.03;;;2.40;81.03
33191;BME280;19554;42.652;23.364;2023-01-24T13:38:15;95703.16;;;2.87;81.21
33191;BME280;19554;42.652;23.364;2023-01-24T13:40:56;95680.13;;;2.76;81.15
33191;BME280;19554;42.652;23.364;2023-01-24T13:46:14;95665.47;;;2.48;80.98
33191;BME280;19554;42.652;23.364;2023-01-24T13:51:31;95706.47;;;2.76;81.57
33191;BME280;19554;42.652;23.364;2023-01-24T13:56:27;95715.00;;;2.78;81.87
33191;BME280;19554;42.652;23.364;2023-01-24T13:58:53;95720.75;;;2.61;82.23
33191;BME280;19554;42.652;23.364;2023-01-24T14:01:20;95722.78;;;2.59;82.06
33191;BME280;19554;42.652;23.364;2023-01-24T14:04:00;95720.59;;;2.56;82.32
33191;BME280;19554;42.652;23.364;2023-01-24T14:06:44;95720.75;;;2.61;81.93
33191;BME280;19554;42.652;23.364;2023-01-24T14:11:55;95649.31;;;2.38;81.58
33191;BME280;19554;42.652;23.364;2023-01-24T14:14:37;95717.44;;;2.73;81.14
33191;BME280;19554;42.652;23.364;2023-01-24T14:23:02;95721.28;;;2.77;80.26
33191;BME280;19554;42.652;23.364;2023-01-24T14:28:54;95607.94;;;2.00;80.84
33191;BME280;19554;42.652;23.364;2023-01-24T14:31:25;95711.41;;;2.66;81.47
33191;BME280;19554;42.652;23.364;2023-01-24T14:36:58;95735.69;;;2.81;81.95
33191;BME280;19554;42.652;23.364;2023-01-24T14:39:26;95718.22;;;2.80;81.03
33191;BME280;19554;42.652;23.364;2023-01-24T14:42:26;95726.91;;;2.87;81.42
33191;BME280;19554;42.652;23.364;2023-01-24T14:44:56;95723.81;;;2.97;81.03
33191;BME280;19554;42.652;23.364;2023-01-24T14:47:23;95733.25;;;2.73;80.62
33191;BME280;19554;42.652;23.364;2023-01-24T14:49:55;95739.38;;;2.67;81.07
33191;BME280;19554;42.652;23.364;2023-01-24T14:52:25;95732.50;;;2.66;80.87
33191;BME280;19554;42.652;23.364;2023-01-24T14:54:56;95608.63;;;1.82;81.00
33191;BME280;19554;42.652;23.364;2023-01-24T14:57:32;95727.63;;;2.63;81.33
33191;BME280;19554;42.652;23.364;2023-01-24T15:00:15;95692.03;;;2.53;80.99
33191;BME280;19554;42.652;23.364;2023-01-24T15:03:01;95688.31;;;2.61;80.85
33191;BME280;19554;42.652;23.364;2023-01-24T15:05:37;95731.59;;;2.85;80.56
33191;BME280;19554;42.652;23.364;2023-01-24T15:08:04;95720.28;;;2.78;79.54
33191;BME280;19554;42.652;23.364;2023-01-24T15:10:36;95735.75;;;2.68;80.24
33191;BME280;19554;42.652;23.364;2023-01-24T15:13:05;95729.38;;;2.82;80.14
33191;BME280;19554;42.652;23.364;2023-01-24T15:15:31;95745.34;;;2.87;79.86